createdAt,value
2018-05-04T00:00:27.402Z,0
2018-05-04T00:01:27.648Z,0
2018-05-04T00:02:28.152Z,0
2018-05-04T00:03:27.385Z,0
2018-05-04T00:04:27.189Z,0
2018-05-04T00:05:27.835Z,0
2018-05-04T00:06:27.584Z,0
2018-05-04T00:07:28.255Z,0
2018-05-04T00:08:28.372Z,0
2018-05-04T00:09:28.850Z,0
2018-05-04T00:10:29.066Z,0
2018-05-04T00:11:29.095Z,0
2018-05-04T00:12:28.874Z,0
2018-05-04T00:13:29.564Z,0
2018-05-04T00:14:29.113Z,0
2018-05-04T00:15:29.566Z,0
2018-05-04T00:16:30.049Z,0
2018-05-04T00:18:11.003Z,0
2018-05-04T00:18:53.120Z,0
2018-05-04T00:19:59.309Z,0
2018-05-04T01:00:03.582Z,0
2018-05-04T01:00:13.525Z,0
2018-05-04T01:01:14.165Z,0
2018-05-04T01:02:13.958Z,0
2018-05-04T01:03:14.348Z,0
2018-05-04T01:04:14.261Z,0
2018-05-04T01:05:14.745Z,0
2018-05-04T01:06:14.436Z,0
2018-05-04T01:07:14.842Z,0
2018-05-04T01:08:15.239Z,0
2018-05-04T01:09:15.275Z,0
2018-05-04T01:10:15.362Z,0
2018-05-04T01:11:15.069Z,0
2018-05-04T01:12:15.243Z,0
2018-05-04T01:13:15.984Z,0
2018-05-04T01:14:15.399Z,0
2018-05-04T01:15:15.554Z,0
2018-05-04T01:16:16.218Z,0
2018-05-04T01:17:16.334Z,0
2018-05-04T01:18:16.771Z,0
2018-05-04T01:19:17.152Z,0
2018-05-04T01:20:17.629Z,0
2018-05-04T01:21:18.291Z,0
2018-05-04T01:22:18.311Z,0
2018-05-04T01:23:18.055Z,0
2018-05-04T01:24:18.492Z,0
2018-05-04T01:25:18.254Z,0
2018-05-04T01:26:18.378Z,0
2018-05-04T01:27:19.001Z,0
2018-05-04T01:28:18.905Z,0
2018-05-04T01:29:18.802Z,0
2018-05-04T01:30:19.465Z,0
2018-05-04T01:31:19.225Z,0
2018-05-04T01:32:19.369Z,0
2018-05-04T01:33:19.750Z,0
2018-05-04T01:34:19.366Z,0
2018-05-04T01:35:20.436Z,0
2018-05-04T01:36:20.203Z,0
2018-05-04T01:37:20.604Z,0
2018-05-04T01:38:20.768Z,0
2018-05-04T01:39:21.035Z,0
2018-05-04T01:40:21.199Z,0
2018-05-04T01:41:21.321Z,0
2018-05-04T01:42:21.718Z,0
2018-05-04T01:43:22.105Z,0
2018-05-04T01:44:22.337Z,0
2018-05-04T01:45:22.510Z,0
2018-05-04T01:46:22.255Z,0
2018-05-04T01:47:22.702Z,0
2018-05-04T01:48:22.828Z,0
2018-05-04T01:49:22.973Z,0
2018-05-04T01:50:23.372Z,0
2018-05-04T01:51:23.788Z,0
2018-05-04T01:52:24.291Z,0
2018-05-04T01:53:24.193Z,0
2018-05-04T01:54:24.001Z,0
2018-05-04T01:55:24.673Z,0
2018-05-04T01:56:24.708Z,0
2018-05-04T01:57:24.698Z,0
2018-05-04T01:58:24.501Z,0
2018-05-04T01:59:24.908Z,0
2018-05-04T03:00:18.130Z,0
2018-05-04T03:01:17.500Z,0
2018-05-04T03:02:17.951Z,0
2018-05-04T03:03:17.951Z,0
2018-05-04T03:04:18.114Z,0
2018-05-04T03:05:17.990Z,0
2018-05-04T03:06:18.384Z,0
2018-05-04T03:07:18.811Z,0
2018-05-04T03:08:19.239Z,0
2018-05-04T03:09:19.646Z,0
2018-05-04T03:10:19.786Z,0
2018-05-04T03:11:20.081Z,0
2018-05-04T03:12:19.988Z,0
2018-05-04T03:13:20.762Z,0
2018-05-04T03:14:20.558Z,0
2018-05-04T03:15:20.342Z,0
2018-05-04T03:16:20.215Z,0
2018-05-04T03:17:20.599Z,0
2018-05-04T03:18:21.116Z,0
2018-05-04T03:19:21.496Z,0
2018-05-04T03:20:22.175Z,0
2018-05-04T03:21:22.018Z,0
2018-05-04T03:22:22.579Z,0
2018-05-04T03:23:22.616Z,0
2018-05-04T03:24:22.374Z,0
2018-05-04T03:25:22.808Z,0
2018-05-04T03:26:22.901Z,0
2018-05-04T03:27:23.269Z,5
2018-05-04T03:28:23.390Z,5
2018-05-04T03:29:24.033Z,5
2018-05-04T03:30:24.069Z,5
2018-05-04T03:31:23.666Z,5
2018-05-04T03:32:24.147Z,5
2018-05-04T03:33:24.553Z,5
2018-05-04T03:34:24.625Z,5
2018-05-04T03:35:25.435Z,5
2018-05-04T03:36:25.114Z,10
2018-05-04T03:37:25.184Z,10
2018-05-04T03:38:25.484Z,10
2018-05-04T03:39:25.188Z,10
2018-05-04T03:40:25.645Z,10
2018-05-04T03:41:25.429Z,10
2018-05-04T03:42:25.427Z,15
2018-05-04T03:43:25.553Z,15
2018-05-04T03:44:25.969Z,15
2018-05-04T03:45:25.863Z,15
2018-05-04T03:46:25.590Z,15
2018-05-04T03:47:26.395Z,20
2018-05-04T03:48:26.188Z,20
2018-05-04T03:49:26.407Z,20
2018-05-04T03:50:26.088Z,20
2018-05-04T03:51:26.472Z,20
2018-05-04T03:52:26.853Z,25
2018-05-04T03:53:26.627Z,25
2018-05-04T03:54:26.773Z,25
2018-05-04T03:55:27.070Z,25
2018-05-04T03:56:26.865Z,25
2018-05-04T03:57:26.731Z,30
2018-05-04T03:58:27.412Z,30
2018-05-04T03:59:27.341Z,30
2018-05-04T04:00:27.463Z,30
2018-05-04T04:01:27.464Z,35
2018-05-04T04:02:27.909Z,35
2018-05-04T04:03:28.635Z,35
2018-05-04T04:04:28.432Z,35
2018-05-04T04:05:28.664Z,40
2018-05-04T04:06:28.440Z,40
2018-05-04T04:07:28.689Z,40
2018-05-04T04:08:29.012Z,40
2018-05-04T04:09:28.987Z,45
2018-05-04T04:10:29.017Z,45
2018-05-04T04:11:29.215Z,45
2018-05-04T04:12:29.156Z,45
2018-05-04T04:13:29.692Z,50
2018-05-04T04:14:30.384Z,50
2018-05-04T04:15:30.246Z,50
2018-05-04T04:16:29.776Z,50
2018-05-04T04:17:32.511Z,55
2018-05-04T04:18:30.746Z,55
2018-05-04T04:19:30.512Z,55
2018-05-04T04:20:31.061Z,55
2018-05-04T04:21:30.612Z,60
2018-05-04T04:22:31.124Z,60
2018-05-04T04:23:31.701Z,60
2018-05-04T04:24:31.132Z,60
2018-05-04T04:25:31.299Z,65
2018-05-04T04:26:32.020Z,65
2018-05-04T04:27:32.014Z,65
2018-05-04T04:28:32.054Z,65
2018-05-04T04:29:31.862Z,70
2018-05-04T04:30:32.285Z,70
2018-05-04T04:31:32.893Z,70
2018-05-04T04:32:33.026Z,75
2018-05-04T04:33:33.193Z,75
2018-05-04T04:34:33.605Z,75
2018-05-04T04:35:33.725Z,75
2018-05-04T04:36:34.154Z,80
2018-05-04T04:37:34.997Z,80
2018-05-04T04:38:34.359Z,80
2018-05-04T04:39:34.778Z,85
2018-05-04T04:40:35.181Z,85
2018-05-04T04:41:36.550Z,80
2018-05-04T04:42:37.744Z,85
2018-05-04T04:43:35.569Z,85
2018-05-04T04:44:38.559Z,85
2018-05-04T04:45:38.787Z,85
2018-05-04T04:46:36.385Z,85
2018-05-04T04:47:37.162Z,90
2018-05-04T04:48:37.223Z,90
2018-05-04T04:49:37.197Z,90
2018-05-04T04:50:36.990Z,100
2018-05-04T04:51:36.508Z,105
2018-05-04T04:52:37.199Z,115
2018-05-04T04:53:37.866Z,130
2018-05-04T04:54:37.396Z,115
2018-05-04T04:55:37.811Z,105
2018-05-04T04:56:37.958Z,100
2018-05-04T04:57:38.581Z,105
2018-05-04T04:58:40.164Z,105
2018-05-04T04:59:38.688Z,105
2018-05-04T05:00:38.766Z,110
2018-05-04T05:01:38.549Z,115
2018-05-04T05:02:38.569Z,115
2018-05-04T05:03:38.793Z,115
2018-05-04T05:04:38.798Z,115
2018-05-04T05:05:39.279Z,120
2018-05-04T05:06:39.042Z,130
2018-05-04T05:07:39.359Z,135
2018-05-04T05:08:38.868Z,130
2018-05-04T05:09:39.405Z,130
2018-05-04T05:10:39.611Z,145
2018-05-04T05:11:39.654Z,160
2018-05-04T05:12:39.512Z,190
2018-05-04T05:13:40.135Z,170
2018-05-04T05:14:41.052Z,145
2018-05-04T05:15:39.813Z,155
2018-05-04T05:16:40.925Z,180
2018-05-04T05:17:39.946Z,170
2018-05-04T05:18:39.980Z,165
2018-05-04T05:19:40.763Z,180
2018-05-04T05:20:40.228Z,190
2018-05-04T05:21:40.491Z,270
2018-05-04T05:22:40.504Z,210
2018-05-04T05:23:40.848Z,235
2018-05-04T05:24:41.037Z,290
2018-05-04T05:25:41.313Z,495
2018-05-04T05:26:41.349Z,600
2018-05-04T05:27:41.147Z,505
2018-05-04T05:28:41.407Z,655
2018-05-04T05:29:41.783Z,715
2018-05-04T05:30:41.189Z,790
2018-05-04T05:31:41.676Z,1000
2018-05-04T05:32:41.927Z,1065
2018-05-04T05:33:42.092Z,950
2018-05-04T05:34:41.789Z,905
2018-05-04T05:35:41.773Z,930
2018-05-04T05:36:41.671Z,1005
2018-05-04T05:37:42.587Z,1095
2018-05-04T05:38:43.159Z,1070
2018-05-04T05:39:42.354Z,850
2018-05-04T05:40:43.105Z,575
2018-05-04T05:41:42.733Z,355
2018-05-04T05:42:43.018Z,315
2018-05-04T05:43:42.775Z,380
2018-05-04T05:44:43.541Z,460
2018-05-04T05:45:42.992Z,490
2018-05-04T05:46:42.984Z,590
2018-05-04T05:47:43.161Z,565
2018-05-04T05:48:43.959Z,405
2018-05-04T05:49:44.375Z,320
2018-05-04T05:50:43.600Z,280
2018-05-04T05:51:43.853Z,240
2018-05-04T05:52:44.726Z,250
2018-05-04T05:53:44.542Z,245
2018-05-04T05:54:45.055Z,275
2018-05-04T05:55:44.493Z,255
2018-05-04T05:56:44.493Z,260
2018-05-04T05:57:44.507Z,325
2018-05-04T05:58:45.341Z,400
2018-05-04T05:59:45.159Z,335
2018-05-04T06:00:45.373Z,335
2018-05-04T06:01:45.630Z,380
2018-05-04T06:02:45.891Z,365
2018-05-04T06:03:45.099Z,395
2018-05-04T06:04:45.800Z,385
2018-05-04T06:05:45.764Z,355
2018-05-04T06:06:46.065Z,410
2018-05-04T06:07:45.534Z,400
2018-05-04T06:08:45.436Z,470
2018-05-04T06:09:46.153Z,805
2018-05-04T06:10:45.883Z,1215
2018-05-04T06:11:46.358Z,1050
2018-05-04T06:12:47.071Z,1045
2018-05-04T06:13:46.878Z,1140
2018-05-04T06:14:47.095Z,1140
2018-05-04T06:15:47.246Z,1030
2018-05-04T06:16:48.223Z,1045
2018-05-04T06:17:48.266Z,1455
2018-05-04T06:18:47.815Z,1685
2018-05-04T06:19:47.820Z,1745
2018-05-04T06:20:48.003Z,1740
2018-05-04T06:21:48.810Z,1685
2018-05-04T06:22:48.062Z,1680
2018-05-04T06:23:47.716Z,1710
2018-05-04T06:24:48.754Z,1700
2018-05-04T06:25:48.790Z,1740
2018-05-04T06:26:48.962Z,1800
2018-05-04T06:27:49.418Z,1720
2018-05-04T06:28:48.642Z,1745
2018-05-04T06:29:48.882Z,1825
2018-05-04T06:30:49.016Z,1875
2018-05-04T06:31:48.871Z,1855
2018-05-04T06:32:49.466Z,1870
2018-05-04T06:33:50.065Z,1785
2018-05-04T06:34:49.671Z,1835
2018-05-04T06:35:49.577Z,1855
2018-05-04T06:36:50.077Z,1885
2018-05-04T06:37:49.469Z,1855
2018-05-04T06:38:49.373Z,1850
2018-05-04T06:39:50.516Z,1895
2018-05-04T06:40:50.073Z,1905
2018-05-04T06:41:50.288Z,1880
2018-05-04T06:42:49.763Z,1885
2018-05-04T06:43:49.977Z,1870
2018-05-04T06:44:50.007Z,1870
2018-05-04T06:45:50.631Z,1890
2018-05-04T06:46:50.640Z,1950
2018-05-04T06:47:51.041Z,1995
2018-05-04T06:48:51.916Z,1965
2018-05-04T06:49:51.524Z,1920
2018-05-04T06:50:52.207Z,1930
2018-05-04T06:51:51.974Z,1990
2018-05-04T06:52:52.134Z,1985
2018-05-04T06:53:51.941Z,1940
2018-05-04T06:54:52.644Z,2000
2018-05-04T06:55:52.792Z,1965
2018-05-04T06:56:52.872Z,1870
2018-05-04T06:57:53.306Z,1910
2018-05-04T06:58:53.985Z,1985
2018-05-04T06:59:53.814Z,2025
2018-05-04T07:00:53.569Z,2010
2018-05-04T07:01:53.678Z,1965
2018-05-04T07:02:53.876Z,2020
2018-05-04T07:03:54.957Z,1940
2018-05-04T07:04:55.877Z,1895
2018-05-04T07:05:55.208Z,2055
2018-05-04T07:06:55.681Z,2055
2018-05-04T07:07:55.930Z,2010
2018-05-04T07:08:55.305Z,2015
2018-05-04T07:09:55.753Z,2025
2018-05-04T07:10:54.698Z,2040
2018-05-04T07:11:54.737Z,2125
2018-05-04T07:12:54.050Z,2115
2018-05-04T07:13:54.782Z,2110
2018-05-04T07:14:54.233Z,2120
2018-05-04T07:15:54.389Z,2105
2018-05-04T07:16:54.608Z,2105
2018-05-04T07:17:55.271Z,2110
2018-05-04T07:18:54.978Z,2135
2018-05-04T07:19:56.585Z,2110
2018-05-04T07:20:55.793Z,2120
2018-05-04T07:21:55.355Z,2130
2018-05-04T07:22:55.839Z,2165
2018-05-04T07:23:55.886Z,2120
2018-05-04T07:24:55.478Z,2130
2018-05-04T07:25:55.733Z,1955
2018-05-04T07:26:56.237Z,1930
2018-05-04T07:27:56.263Z,1960
2018-05-04T07:28:57.222Z,2095
2018-05-04T07:29:55.774Z,2020
2018-05-04T07:30:55.831Z,2005
2018-05-04T07:31:56.555Z,2170
2018-05-04T07:32:56.406Z,2225
2018-05-04T07:33:56.345Z,2235
2018-05-04T07:34:56.102Z,2285
2018-05-04T07:35:56.705Z,2255
2018-05-04T07:36:56.827Z,2270
2018-05-04T07:37:56.716Z,2220
2018-05-04T07:38:57.282Z,2265
2018-05-04T07:39:57.352Z,2290
2018-05-04T07:40:56.824Z,2275
2018-05-04T07:41:57.492Z,2245
2018-05-04T07:42:57.538Z,2225
2018-05-04T07:43:57.629Z,2215
2018-05-04T07:44:57.369Z,2265
2018-05-04T07:45:57.774Z,2290
2018-05-04T07:46:57.806Z,2300
2018-05-04T07:47:57.577Z,2310
2018-05-04T07:48:58.064Z,2270
2018-05-04T07:49:57.669Z,2345
2018-05-04T07:50:58.085Z,2315
2018-05-04T07:51:57.856Z,2330
2018-05-04T07:52:58.293Z,2300
2018-05-04T07:53:58.242Z,2285
2018-05-04T07:54:58.768Z,2395
2018-05-04T07:55:58.607Z,2395
2018-05-04T07:56:59.062Z,2395
2018-05-04T07:57:59.015Z,2425
2018-05-04T07:58:58.727Z,2440
2018-05-04T07:59:59.379Z,2405
2018-05-04T08:00:59.013Z,2435
2018-05-04T08:01:59.749Z,2455
2018-05-04T08:03:00.143Z,2285
2018-05-04T08:03:59.483Z,2280
2018-05-04T08:04:59.881Z,2305
2018-05-04T08:06:00.410Z,2280
2018-05-04T08:07:01.007Z,2395
2018-05-04T08:08:00.129Z,2405
2018-05-04T08:09:00.063Z,2460
2018-05-04T08:10:01.125Z,2485
2018-05-04T08:11:01.634Z,2415
2018-05-04T08:12:02.071Z,2345
2018-05-04T08:13:01.074Z,2420
2018-05-04T08:14:01.232Z,2515
2018-05-04T08:15:01.914Z,2490
2018-05-04T08:16:01.678Z,2430
2018-05-04T08:17:01.961Z,2445
2018-05-04T08:18:02.405Z,2540
2018-05-04T08:19:02.252Z,2605
2018-05-04T08:20:03.201Z,2475
2018-05-04T08:21:02.964Z,2460
2018-05-04T08:22:02.865Z,2550
2018-05-04T08:23:03.109Z,2425
2018-05-04T08:24:03.078Z,2440
2018-05-04T08:25:02.343Z,2540
2018-05-04T08:26:03.944Z,2495
2018-05-04T08:27:03.116Z,2495
2018-05-04T08:28:03.535Z,2520
2018-05-04T08:29:03.732Z,2485
2018-05-04T08:30:04.014Z,2545
2018-05-04T08:31:04.228Z,2660
2018-05-04T08:32:04.654Z,2585
2018-05-04T08:33:04.300Z,2565
2018-05-04T08:34:04.601Z,2655
2018-05-04T08:35:05.239Z,2565
2018-05-04T08:36:05.400Z,2620
2018-05-04T08:37:05.350Z,2635
2018-05-04T08:38:06.088Z,2695
2018-05-04T08:39:06.141Z,2650
2018-05-04T08:40:06.053Z,2640
2018-05-04T08:41:05.384Z,2625
2018-05-04T08:42:05.721Z,2625
2018-05-04T08:43:06.386Z,2575
2018-05-04T08:44:06.318Z,2600
2018-05-04T08:45:06.566Z,2595
2018-05-04T08:46:06.274Z,2590
2018-05-04T08:47:06.773Z,2540
2018-05-04T08:48:07.312Z,2330
2018-05-04T08:49:07.862Z,2195
2018-05-04T08:50:07.394Z,2520
2018-05-04T08:51:07.942Z,2605
2018-05-04T08:52:07.449Z,2485
2018-05-04T08:53:06.866Z,2615
2018-05-04T08:54:07.822Z,2695
2018-05-04T08:55:07.734Z,2655
2018-05-04T08:56:07.344Z,2650
2018-05-04T08:57:08.233Z,2885
2018-05-04T08:58:08.076Z,2870
2018-05-04T08:59:07.865Z,2655
2018-05-04T09:00:21.589Z,2585
2018-05-04T09:01:08.382Z,2530
2018-05-04T09:02:08.924Z,2695
2018-05-04T09:03:09.126Z,2950
2018-05-04T09:04:08.940Z,2990
2018-05-04T09:05:08.567Z,2795
2018-05-04T09:06:08.594Z,2775
2018-05-04T09:07:09.212Z,2865
2018-05-04T09:08:09.180Z,2870
2018-05-04T09:09:09.690Z,2940
2018-05-04T09:10:09.555Z,2940
2018-05-04T09:11:09.486Z,2800
2018-05-04T09:12:09.508Z,2760
2018-05-04T09:13:10.068Z,2820
2018-05-04T09:14:10.973Z,2805
2018-05-04T09:15:10.334Z,2970
2018-05-04T09:16:10.397Z,3135
2018-05-04T09:17:10.543Z,3160
2018-05-04T09:18:11.073Z,3260
2018-05-04T09:19:11.104Z,3295
2018-05-04T09:20:10.337Z,3215
2018-05-04T09:21:10.653Z,3145
2018-05-04T09:22:11.317Z,3170
2018-05-04T09:23:11.542Z,3240
2018-05-04T09:24:10.493Z,3295
2018-05-04T09:25:11.440Z,3260
2018-05-04T09:26:11.177Z,3495
2018-05-04T09:27:11.475Z,3620
2018-05-04T09:28:10.946Z,3485
2018-05-04T09:29:11.702Z,3290
2018-05-04T09:30:11.550Z,3320
2018-05-04T09:31:12.064Z,3415
2018-05-04T09:32:11.559Z,3300
2018-05-04T09:33:11.801Z,3130
2018-05-04T09:34:12.358Z,3255
2018-05-04T09:35:11.890Z,3315
2018-05-04T09:36:12.144Z,3200
2018-05-04T09:37:12.203Z,2900
2018-05-04T09:38:12.451Z,2640
2018-05-04T09:39:13.290Z,2665
2018-05-04T09:40:13.015Z,3035
2018-05-04T09:41:13.477Z,3160
2018-05-04T09:42:12.547Z,2990
2018-05-04T09:43:13.234Z,2795
2018-05-04T09:44:12.670Z,3140
2018-05-04T09:45:13.176Z,3645
2018-05-04T09:46:12.939Z,3495
2018-05-04T09:47:13.223Z,3355
2018-05-04T09:48:14.163Z,3080
2018-05-04T09:49:13.394Z,2965
2018-05-04T09:50:13.730Z,2095
2018-05-04T09:51:14.254Z,910
2018-05-04T09:52:14.550Z,575
2018-05-04T09:53:14.419Z,525
2018-05-04T09:54:14.310Z,470
2018-05-04T09:55:14.615Z,465
2018-05-04T09:56:15.485Z,435
2018-05-04T09:57:15.178Z,425
2018-05-04T09:58:15.071Z,415
2018-05-04T09:59:14.888Z,405
2018-05-04T10:00:17.428Z,410
2018-05-04T10:01:16.323Z,400
2018-05-04T10:02:16.345Z,390
2018-05-04T10:03:16.186Z,370
2018-05-04T10:04:16.466Z,375
2018-05-04T10:05:15.961Z,360
2018-05-04T10:06:16.464Z,360
2018-05-04T10:07:16.943Z,355
2018-05-04T10:08:17.564Z,350
2018-05-04T10:09:17.474Z,350
2018-05-04T10:10:17.308Z,340
2018-05-04T10:11:17.328Z,340
2018-05-04T10:12:17.410Z,340
2018-05-04T10:13:17.131Z,330
2018-05-04T10:14:18.003Z,330
2018-05-04T10:15:17.773Z,330
2018-05-04T10:16:17.830Z,320
2018-05-04T10:17:18.047Z,320
2018-05-04T10:18:17.808Z,315
2018-05-04T10:19:18.675Z,320
2018-05-04T10:20:18.631Z,325
2018-05-04T10:21:18.734Z,315
2018-05-04T10:22:18.968Z,315
2018-05-04T10:23:18.702Z,310
2018-05-04T10:24:18.936Z,305
2018-05-04T10:25:19.692Z,295
2018-05-04T10:26:18.922Z,295
2018-05-04T10:27:19.227Z,290
2018-05-04T10:28:19.507Z,295
2018-05-04T10:29:19.258Z,295
2018-05-04T10:30:20.322Z,285
2018-05-04T10:31:20.133Z,305
2018-05-04T10:32:20.091Z,290
2018-05-04T10:33:19.757Z,280
2018-05-04T10:34:20.001Z,295
2018-05-04T10:35:20.411Z,295
2018-05-04T10:36:20.309Z,280
2018-05-04T10:37:20.763Z,290
2018-05-04T10:38:20.768Z,280
2018-05-04T10:39:20.468Z,295
2018-05-04T10:40:20.217Z,285
2018-05-04T10:41:20.611Z,290
2018-05-04T10:42:20.715Z,295
2018-05-04T10:43:20.310Z,295
2018-05-04T10:44:20.750Z,300
2018-05-04T10:45:21.086Z,295
2018-05-04T10:46:20.695Z,305
2018-05-04T10:47:20.420Z,305
2018-05-04T10:48:21.103Z,305
2018-05-04T10:49:20.702Z,290
2018-05-04T10:50:21.011Z,290
2018-05-04T10:51:21.044Z,300
2018-05-04T10:52:21.522Z,290
2018-05-04T10:53:20.557Z,295
2018-05-04T10:54:21.413Z,290
2018-05-04T10:55:21.088Z,280
2018-05-04T10:56:21.369Z,260
2018-05-04T10:57:21.322Z,230
2018-05-04T10:58:21.527Z,220
2018-05-04T10:59:21.822Z,215
2018-05-04T11:00:24.433Z,205
2018-05-04T11:01:25.113Z,205
2018-05-04T11:02:24.345Z,200
2018-05-04T11:03:24.406Z,195
2018-05-04T11:04:24.962Z,195
2018-05-04T11:05:25.009Z,195
2018-05-04T11:06:25.506Z,190
2018-05-04T11:07:24.990Z,190
2018-05-04T11:08:25.377Z,190
2018-05-04T11:09:25.790Z,190
2018-05-04T11:10:25.899Z,190
2018-05-04T11:11:26.099Z,185
2018-05-04T11:12:25.979Z,180
2018-05-04T11:13:26.687Z,180
2018-05-04T11:14:27.199Z,180
2018-05-04T11:15:26.890Z,185
2018-05-04T11:16:26.668Z,180
2018-05-04T11:17:27.187Z,180
2018-05-04T11:18:27.408Z,175
2018-05-04T11:19:27.488Z,180
2018-05-04T11:20:27.421Z,175
2018-05-04T11:21:27.324Z,175
2018-05-04T11:22:27.036Z,175
2018-05-04T11:23:27.185Z,175
2018-05-04T11:24:27.756Z,175
2018-05-04T11:25:28.263Z,170
2018-05-04T11:26:28.246Z,170
2018-05-04T11:27:28.412Z,170
2018-05-04T11:28:28.420Z,170
2018-05-04T11:29:27.830Z,170
2018-05-04T11:30:28.267Z,165
2018-05-04T11:31:28.698Z,165
2018-05-04T11:32:28.866Z,165
2018-05-04T11:33:31.270Z,160
2018-05-04T11:34:30.182Z,155
2018-05-04T11:35:30.756Z,155
2018-05-04T11:36:29.855Z,150
2018-05-04T11:37:30.359Z,150
2018-05-04T11:38:30.347Z,150
2018-05-04T11:39:30.381Z,150
2018-05-04T11:40:31.206Z,145
2018-05-04T11:41:30.997Z,145
2018-05-04T11:42:31.171Z,145
2018-05-04T11:43:31.620Z,145
2018-05-04T11:44:32.237Z,145
2018-05-04T11:45:32.366Z,140
2018-05-04T11:46:32.763Z,140
2018-05-04T11:47:32.516Z,140
2018-05-04T11:48:33.309Z,140
2018-05-04T11:49:33.208Z,140
2018-05-04T11:50:33.124Z,140
2018-05-04T11:51:34.119Z,140
2018-05-04T11:52:33.620Z,140
2018-05-04T11:53:33.847Z,140
2018-05-04T11:54:33.809Z,140
2018-05-04T11:55:33.811Z,140
2018-05-04T11:56:33.923Z,140
2018-05-04T11:57:34.407Z,135
2018-05-04T11:58:34.537Z,140
2018-05-04T11:59:34.433Z,140
2018-05-04T13:00:07.240Z,120
2018-05-04T13:00:22.818Z,120
2018-05-04T13:01:19.672Z,120
2018-05-04T13:02:20.148Z,120
2018-05-04T13:03:20.664Z,120
2018-05-04T13:04:20.680Z,120
2018-05-04T13:05:21.368Z,120
2018-05-04T13:06:21.484Z,120
2018-05-04T13:07:21.241Z,120
2018-05-04T13:08:21.407Z,115
2018-05-04T13:09:22.101Z,115
2018-05-04T13:10:22.090Z,120
2018-05-04T13:11:22.587Z,115
2018-05-04T13:12:21.895Z,115
2018-05-04T13:13:22.216Z,115
2018-05-04T13:14:22.661Z,115
2018-05-04T13:15:22.326Z,115
2018-05-04T13:16:22.584Z,115
2018-05-04T13:17:23.242Z,115
2018-05-04T13:18:22.893Z,110
2018-05-04T13:19:23.314Z,110
2018-05-04T13:20:23.462Z,115
2018-05-04T13:21:23.879Z,115
2018-05-04T13:22:24.415Z,110
2018-05-04T13:23:24.238Z,115
2018-05-04T13:24:24.343Z,115
2018-05-04T13:25:23.948Z,115
2018-05-04T13:26:23.979Z,110
2018-05-04T13:27:24.717Z,110
2018-05-04T13:28:25.153Z,110
2018-05-04T13:29:25.165Z,110
2018-05-04T13:30:25.314Z,115
2018-05-04T13:31:24.934Z,115
2018-05-04T13:32:24.794Z,115
2018-05-04T13:33:25.693Z,110
2018-05-04T13:34:25.402Z,110
2018-05-04T13:35:25.574Z,115
2018-05-04T13:36:25.631Z,110
2018-05-04T13:37:26.222Z,110
2018-05-04T13:38:26.322Z,115
2018-05-04T13:39:26.916Z,120
2018-05-04T13:40:26.919Z,115
2018-05-04T13:41:27.146Z,125
2018-05-04T13:42:27.098Z,120
2018-05-04T13:43:27.510Z,120
2018-05-04T13:44:27.595Z,120
2018-05-04T13:45:27.746Z,130
2018-05-04T13:46:27.919Z,130
2018-05-04T13:47:27.497Z,135
2018-05-04T13:48:27.863Z,135
2018-05-04T13:49:27.941Z,130
2018-05-04T13:50:30.387Z,130
2018-05-04T13:51:29.865Z,135
2018-05-04T13:52:29.236Z,140
2018-05-04T13:53:29.594Z,145
2018-05-04T13:54:30.740Z,140
2018-05-04T13:55:30.378Z,145
2018-05-04T13:56:29.040Z,145
2018-05-04T13:57:29.186Z,140
2018-05-04T13:58:31.447Z,140
2018-05-04T13:59:30.585Z,140
2018-05-04T14:00:29.736Z,140
2018-05-04T14:01:29.616Z,140
2018-05-04T14:02:29.794Z,140
2018-05-04T14:03:30.454Z,140
2018-05-04T14:04:29.938Z,140
2018-05-04T14:05:30.384Z,135
2018-05-04T14:06:32.304Z,135
2018-05-04T14:07:30.590Z,130
2018-05-04T14:08:31.043Z,130
2018-05-04T14:09:31.112Z,130
2018-05-04T14:10:31.726Z,135
2018-05-04T14:11:33.045Z,135
2018-05-04T14:12:31.237Z,135
2018-05-04T14:13:32.337Z,140
2018-05-04T14:14:33.222Z,145
2018-05-04T14:15:31.944Z,150
2018-05-04T14:16:31.615Z,150
2018-05-04T14:17:32.202Z,150
2018-05-04T14:18:31.186Z,150
2018-05-04T14:19:31.763Z,155
2018-05-04T14:20:31.448Z,145
2018-05-04T14:21:31.628Z,145
2018-05-04T14:22:31.813Z,145
2018-05-04T14:23:32.228Z,150
2018-05-04T14:24:32.392Z,140
2018-05-04T14:25:32.522Z,150
2018-05-04T14:26:32.577Z,150
2018-05-04T14:27:32.386Z,145
2018-05-04T14:28:33.292Z,145
2018-05-04T14:29:32.794Z,145
2018-05-04T14:30:33.208Z,145
2018-05-04T14:31:33.508Z,155
2018-05-04T14:32:33.273Z,150
2018-05-04T14:33:33.940Z,150
2018-05-04T14:34:33.765Z,150
2018-05-04T14:35:34.456Z,140
2018-05-04T14:36:33.922Z,140
2018-05-04T14:37:34.408Z,140
2018-05-04T14:38:34.276Z,140
2018-05-04T14:39:34.695Z,135
2018-05-04T14:40:35.429Z,135
2018-05-04T14:41:35.312Z,130
2018-05-04T14:42:34.933Z,125
2018-05-04T14:43:34.961Z,125
2018-05-04T14:44:34.856Z,120
2018-05-04T14:45:35.155Z,115
2018-05-04T14:46:35.824Z,115
2018-05-04T14:47:35.480Z,115
2018-05-04T14:48:35.612Z,115
2018-05-04T14:49:36.061Z,110
2018-05-04T14:50:37.821Z,105
2018-05-04T14:51:37.210Z,105
2018-05-04T14:52:36.737Z,110
2018-05-04T14:53:36.440Z,105
2018-05-04T14:54:37.291Z,105
2018-05-04T14:55:37.006Z,105
2018-05-04T14:56:37.174Z,105
2018-05-04T14:57:37.850Z,105
2018-05-04T14:58:38.237Z,105
2018-05-04T14:59:38.067Z,105
2018-05-04T15:00:40.903Z,110
2018-05-04T15:01:41.142Z,110
2018-05-04T15:02:38.105Z,105
2018-05-04T15:03:38.136Z,105
2018-05-04T15:04:37.684Z,110
2018-05-04T15:05:39.021Z,110
2018-05-04T15:06:38.785Z,110
2018-05-04T15:07:40.185Z,110
2018-05-04T15:08:39.605Z,110
2018-05-04T15:09:39.459Z,105
2018-05-04T15:10:39.116Z,105
2018-05-04T15:11:39.001Z,105
2018-05-04T15:12:38.961Z,100
2018-05-04T15:13:38.693Z,100
2018-05-04T15:14:38.858Z,100
2018-05-04T15:15:38.651Z,95
2018-05-04T15:16:38.780Z,95
2018-05-04T15:17:39.116Z,90
2018-05-04T15:18:39.635Z,95
2018-05-04T15:19:39.813Z,90
2018-05-04T15:20:39.387Z,90
2018-05-04T15:21:40.015Z,90
2018-05-04T15:22:41.570Z,90
2018-05-04T15:23:40.814Z,90
2018-05-04T15:24:41.096Z,85
2018-05-04T15:25:40.709Z,85
2018-05-04T15:26:40.779Z,85
2018-05-04T15:27:41.193Z,85
2018-05-04T15:28:41.152Z,85
2018-05-04T15:29:41.224Z,85
2018-05-04T15:30:42.195Z,85
2018-05-04T15:31:42.203Z,80
2018-05-04T15:32:42.866Z,80
2018-05-04T15:33:42.260Z,80
2018-05-04T15:34:42.824Z,80
2018-05-04T15:35:42.065Z,80
2018-05-04T15:36:42.608Z,85
2018-05-04T15:37:42.728Z,80
2018-05-04T15:38:43.224Z,85
2018-05-04T15:39:43.105Z,85
2018-05-04T15:40:43.624Z,85
2018-05-04T15:41:43.643Z,85
2018-05-04T15:42:43.133Z,85
2018-05-04T15:43:43.595Z,80
2018-05-04T15:44:43.987Z,80
2018-05-04T15:45:44.391Z,80
2018-05-04T15:46:44.785Z,80
2018-05-04T15:47:44.808Z,80
2018-05-04T15:48:44.944Z,80
2018-05-04T15:49:45.530Z,80
2018-05-04T15:50:45.758Z,80
2018-05-04T15:51:45.843Z,80
2018-05-04T15:52:45.577Z,80
2018-05-04T15:53:45.571Z,80
2018-05-04T15:54:46.283Z,80
2018-05-04T15:55:45.835Z,80
2018-05-04T15:56:46.516Z,80
2018-05-04T15:57:46.674Z,80
2018-05-04T15:58:47.072Z,75
2018-05-04T15:59:46.808Z,80
2018-05-04T16:00:50.040Z,75
2018-05-04T16:01:50.327Z,75
2018-05-04T16:02:46.933Z,75
2018-05-04T16:03:47.055Z,75
2018-05-04T16:04:47.231Z,75
2018-05-04T16:05:47.379Z,75
2018-05-04T16:06:47.654Z,75
2018-05-04T16:07:47.520Z,75
2018-05-04T16:08:47.576Z,75
2018-05-04T16:09:47.585Z,75
2018-05-04T16:10:47.632Z,75
2018-05-04T16:11:47.947Z,75
2018-05-04T16:12:48.210Z,75
2018-05-04T16:13:48.368Z,75
2018-05-04T16:14:48.506Z,75
2018-05-04T16:15:48.917Z,70
2018-05-04T16:16:49.594Z,70
2018-05-04T16:17:48.585Z,75
2018-05-04T16:18:48.852Z,70
2018-05-04T16:19:49.175Z,70
2018-05-04T16:20:49.594Z,70
2018-05-04T16:21:49.752Z,70
2018-05-04T16:22:50.742Z,70
2018-05-04T16:23:50.469Z,70
2018-05-04T16:24:50.313Z,70
2018-05-04T16:25:50.649Z,70
2018-05-04T16:26:50.383Z,70
2018-05-04T16:27:50.831Z,70
2018-05-04T16:28:51.019Z,70
2018-05-04T16:29:51.256Z,70
2018-05-04T16:30:51.675Z,70